Time;durP1;ratioP1;P1;durP2;ratioP2;P2;SDS_P1;SDS_P2;PMS_P1;PMS_P2;Temp;Humidity;BMP_temperature;BMP_pressure;BME280_temperature;BME280_humidity;BME280_pressure;Samples;Min_cycle;Max_cycle;Signal;HPM_P1;HPM_P2
2023/06/03 00:01:11;;;;;;;4.70;2.15;;;15.70;77.30;;;;;;5136407;27;20046;-69
2023/06/03 00:03:39;;;;;;;4.57;2.60;;;15.60;77.60;;;;;;5119133;27;20079;-69
2023/06/03 00:06:05;;;;;;;4.40;2.45;;;15.60;78.00;;;;;;5136339;27;20034;-69
2023/06/03 00:08:31;;;;;;;3.10;2.63;;;15.60;78.30;;;;;;5117859;27;20042;-69
2023/06/03 00:10:56;;;;;;;6.38;2.58;;;15.50;78.50;;;;;;5136354;27;20035;-69
2023/06/03 00:13:22;;;;;;;3.15;2.15;;;15.50;78.90;;;;;;5118160;27;20031;-69
2023/06/03 00:15:48;;;;;;;5.60;2.60;;;15.40;79.40;;;;;;5136469;27;20125;-68
2023/06/03 00:18:15;;;;;;;4.97;2.45;;;15.40;79.40;;;;;;5118318;27;20454;-69
2023/06/03 00:20:42;;;;;;;4.55;2.72;;;15.40;79.60;;;;;;5136532;27;20422;-69
2023/06/03 00:23:08;;;;;;;6.35;2.38;;;15.50;79.50;;;;;;5117995;27;20455;-69
2023/06/03 00:25:34;;;;;;;2.97;2.13;;;15.40;79.60;;;;;;5136631;27;20062;-69
2023/06/03 00:28:00;;;;;;;5.25;2.35;;;15.40;79.60;;;;;;5136280;27;20027;-68
2023/06/03 00:30:26;;;;;;;2.28;2.10;;;15.30;80.10;;;;;;5117748;27;20031;-69
2023/06/03 00:32:52;;;;;;;4.85;2.05;;;15.20;80.20;;;;;;5135913;27;20035;-68
2023/06/03 00:35:17;;;;;;;3.75;2.58;;;15.20;80.20;;;;;;5136156;27;20380;-69
2023/06/03 00:37:43;;;;;;;4.57;2.75;;;15.10;80.60;;;;;;5118047;27;20027;-68
2023/06/03 00:40:09;;;;;;;7.25;2.65;;;15.10;81.00;;;;;;5136689;27;20432;-69
2023/06/03 00:42:35;;;;;;;4.07;2.17;;;15.00;81.00;;;;;;5117900;27;20087;-69
2023/06/03 00:45:01;;;;;;;4.15;2.30;;;15.00;81.20;;;;;;5135982;27;20529;-69
2023/06/03 00:47:27;;;;;;;4.35;2.17;;;15.00;81.70;;;;;;5135862;27;20030;-68
2023/06/03 00:49:53;;;;;;;3.95;2.40;;;15.00;81.50;;;;;;5135924;27;20461;-69
2023/06/03 00:52:22;;;;;;;4.20;2.50;;;15.00;81.60;;;;;;5135900;27;20034;-69
2023/06/03 00:54:49;;;;;;;3.00;2.25;;;15.00;81.40;;;;;;5117306;27;20088;-69
2023/06/03 00:57:15;;;;;;;2.95;2.15;;;14.90;80.50;;;;;;5136495;27;20474;-69
2023/06/03 00:59:42;;;;;;;4.55;2.00;;;14.90;81.20;;;;;;5135969;27;20031;-69
2023/06/03 01:02:07;;;;;;;4.40;2.35;;;14.90;81.20;;;;;;5135922;27;20047;-69
2023/06/03 01:04:34;;;;;;;2.83;2.22;;;14.90;81.00;;;;;;5135283;27;20023;-68
2023/06/03 01:07:15;;;;;;;4.43;2.33;;;14.90;81.60;;;;;;5135593;27;20420;-69
2023/06/03 01:10:06;;;;;;;3.55;2.35;;;14.90;81.50;;;;;;5135177;27;20034;-68
2023/06/03 01:12:38;;;;;;;3.83;2.20;;;14.90;81.50;;;;;;5117061;27;20042;-70
2023/06/03 01:15:09;;;;;;;5.55;2.60;;;14.90;81.50;;;;;;5117010;27;20039;-69
2023/06/03 01:17:45;;;;;;;6.18;2.25;;;14.90;81.80;;;;;;5135215;27;20034;-69
2023/06/03 01:20:12;;;;;;;3.40;2.50;;;14.90;82.10;;;;;;5135008;27;20080;-68
2023/06/03 01:22:41;;;;;;;6.85;3.20;;;14.80;81.60;;;;;;5135403;27;20034;-68
2023/06/03 01:25:08;;;;;;;4.22;2.65;;;14.80;82.20;;;;;;5135998;27;20046;-68
2023/06/03 01:27:38;;;;;;;4.75;2.47;;;14.80;82.20;;;;;;5135025;27;20043;-68
2023/06/03 01:30:13;;;;;;;6.55;2.60;;;14.80;82.70;;;;;;5117040;27;20404;-68
2023/06/03 01:32:40;;;;;;;3.83;2.72;;;14.70;82.60;;;;;;5135136;27;20389;-68
2023/06/03 01:35:08;;;;;;;3.40;2.38;;;14.70;82.70;;;;;;5135302;27;20062;-68
2023/06/03 01:37:34;;;;;;;7.15;3.30;;;14.60;82.80;;;;;;5116589;27;20038;-69
2023/06/03 01:40:01;;;;;;;4.63;2.30;;;;;;;;;;5134825;27;20402;-68
2023/06/03 01:42:27;;;;;;;3.85;2.50;;;14.60;83.40;;;;;;5116223;27;20034;-68
2023/06/03 01:44:53;;;;;;;6.85;2.65;;;14.60;84.60;;;;;;5135125;27;20031;-68
2023/06/03 01:47:19;;;;;;;5.05;2.45;;;14.60;83.70;;;;;;5116500;27;20037;-68
2023/06/03 01:49:46;;;;;;;3.20;2.28;;;14.50;84.00;;;;;;5134955;27;20085;-69
2023/06/03 01:52:12;;;;;;;5.70;2.47;;;14.50;84.60;;;;;;5135059;27;20042;-68
2023/06/03 01:54:37;;;;;;;3.58;2.75;;;14.50;84.80;;;;;;5116319;28;20063;-68
2023/06/03 01:57:03;;;;;;;5.60;2.58;;;14.50;85.30;;;;;;5135016;27;20066;-69
2023/06/03 01:59:29;;;;;;;5.25;2.60;;;14.50;85.70;;;;;;5134829;27;20034;-68
2023/06/03 02:01:56;;;;;;;5.30;2.60;;;14.50;86.60;;;;;;5134789;28;20047;-68
2023/06/03 02:04:23;;;;;;;5.25;2.47;;;14.40;87.30;;;;;;5134798;28;20046;-68
2023/06/03 02:06:55;;;;;;;3.58;2.33;;;14.40;87.70;;;;;;5135015;28;20091;-69
2023/06/03 02:09:21;;;;;;;3.70;2.22;;;14.30;88.60;;;;;;5115833;28;20032;-68
2023/06/03 02:11:48;;;;;;;4.45;2.25;;;14.20;89.60;;;;;;5116284;28;20035;-68
2023/06/03 02:14:14;;;;;;;4.22;2.45;;;14.20;90.20;;;;;;5134927;28;20460;-68
2023/06/03 02:16:40;;;;;;;8.98;3.15;;;14.20;90.60;;;;;;5116486;28;20065;-68
2023/06/03 02:19:21;;;;;;;4.18;2.45;;;14.10;90.80;;;;;;5134593;28;20031;-68
2023/06/03 02:21:47;;;;;;;4.68;2.63;;;14.10;91.10;;;;;;5134506;28;20060;-69
2023/06/03 02:24:14;;;;;;;6.50;2.85;;;14.00;91.30;;;;;;5116445;28;20034;-69
2023/06/03 02:26:49;;;;;;;3.30;2.80;;;13.90;91.80;;;;;;5134537;28;20084;-68
2023/06/03 02:29:23;;;;;;;6.68;2.60;;;13.80;92.10;;;;;;5116185;27;20039;-68
2023/06/03 02:31:49;;;;;;;4.40;2.47;;;13.70;92.70;;;;;;5120247;27;20041;-69
2023/06/03 02:34:15;;;;;;;5.65;2.50;;;13.60;93.90;;;;;;5120222;27;20035;-69
2023/06/03 02:36:43;;;;;;;4.38;2.75;;;13.60;94.40;;;;;;5139097;27;20110;-69
2023/06/03 02:39:10;;;;;;;7.20;2.47;;;13.50;94.80;;;;;;5140349;27;20078;-69
2023/06/03 02:41:36;;;;;;;5.93;2.90;;;13.40;95.00;;;;;;5123256;27;20481;-69
2023/06/03 02:44:02;;;;;;;7.18;3.03;;;13.30;95.40;;;;;;5138509;27;20039;-69
2023/06/03 02:46:28;;;;;;;6.82;2.70;;;13.20;95.70;;;;;;5120120;27;20058;-69
2023/06/03 02:48:54;;;;;;;4.13;2.53;;;13.10;96.20;;;;;;5138295;27;20082;-69
2023/06/03 02:51:20;;;;;;;6.57;2.95;;;13.00;96.80;;;;;;5119532;27;20091;-69
2023/06/03 02:53:46;;;;;;;8.55;2.40;;;13.00;97.30;;;;;;5138516;27;20027;-68
2023/06/03 02:56:12;;;;;;;5.05;3.05;;;13.00;97.60;;;;;;5138293;27;20460;-68
2023/06/03 02:58:39;;;;;;;3.35;2.70;;;12.90;98.00;;;;;;5138001;27;20027;-68
2023/06/03 03:01:05;;;;;;;6.45;2.80;;;12.80;98.40;;;;;;5119467;27;20077;-68
2023/06/03 03:03:35;;;;;;;7.88;2.28;;;12.80;98.70;;;;;;5138032;27;20091;-69
2023/06/03 03:06:03;;;;;;;5.47;2.90;;;12.70;99.30;;;;;;5138069;27;20024;-68
2023/06/03 03:08:29;;;;;;;5.10;2.78;;;12.60;99.50;;;;;;5138055;27;20503;-68
2023/06/03 03:10:55;;;;;;;8.45;3.20;;;12.60;99.90;;;;;;5137818;27;20082;-68
2023/06/03 03:13:21;;;;;;;3.72;2.72;;;12.60;99.90;;;;;;5137810;27;20484;-68
2023/06/03 03:15:47;;;;;;;3.38;2.58;;;12.50;99.90;;;;;;5137714;27;20038;-69
2023/06/03 03:18:13;;;;;;;4.32;2.65;;;12.50;99.90;;;;;;5137828;27;20488;-68
2023/06/03 03:20:39;;;;;;;10.60;3.20;;;12.40;99.90;;;;;;5119480;27;20122;-69
2023/06/03 03:23:06;;;;;;;5.15;2.70;;;12.40;99.90;;;;;;5138216;27;20487;-68
2023/06/03 03:25:32;;;;;;;5.28;2.90;;;12.40;99.90;;;;;;5137890;27;20027;-68
2023/06/03 03:27:58;;;;;;;9.95;2.88;;;12.40;99.90;;;;;;5137694;27;20056;-68
2023/06/03 03:30:24;;;;;;;5.78;2.90;;;12.40;99.90;;;;;;5137467;27;20043;-68
2023/06/03 03:32:50;;;;;;;9.73;2.65;;;12.40;99.90;;;;;;5137848;27;20035;-68
2023/06/03 03:35:20;;;;;;;6.40;2.90;;;12.40;99.90;;;;;;5137338;27;20036;-68
2023/06/03 03:37:46;;;;;;;5.82;3.03;;;12.30;99.90;;;;;;5137400;27;20092;-68
2023/06/03 03:40:20;;;;;;;4.85;2.75;;;12.30;99.90;;;;;;5118884;27;20080;-68
2023/06/03 03:42:50;;;;;;;6.15;3.17;;;12.30;99.90;;;;;;5136240;27;20084;-68
2023/06/03 03:45:18;;;;;;;4.47;2.25;;;12.40;99.90;;;;;;5137331;27;20066;-69
2023/06/03 03:47:47;;;;;;;4.05;2.42;;;12.40;99.90;;;;;;5137218;27;20035;-69
2023/06/03 03:50:35;;;;;;;7.22;3.20;;;12.40;99.90;;;;;;5137190;27;20045;-68
2023/06/03 03:53:05;;;;;;;5.10;2.20;;;12.40;99.90;;;;;;5137486;27;20034;-69
2023/06/03 03:55:32;;;;;;;8.82;2.75;;;12.50;99.90;;;;;;5136557;27;20038;-69
2023/06/03 03:58:02;;;;;;;3.72;2.13;;;12.50;99.90;;;;;;5118784;27;20457;-69
2023/06/03 04:00:28;;;;;;;4.28;3.03;;;12.60;99.90;;;;;;5118262;27;20483;-69
2023/06/03 04:02:53;;;;;;;6.50;3.10;;;12.70;99.90;;;;;;5136797;27;20034;-69
2023/06/03 04:05:23;;;;;;;5.25;2.67;;;12.80;99.90;;;;;;5118432;27;20027;-69
2023/06/03 04:07:48;;;;;;;5.35;3.13;;;12.80;99.90;;;;;;5136884;27;20035;-69
2023/06/03 04:10:15;;;;;;;5.13;2.67;;;12.90;99.90;;;;;;5118341;27;20035;-69
2023/06/03 04:12:41;;;;;;;5.15;2.65;;;12.90;99.90;;;;;;5118728;27;20038;-69
2023/06/03 04:15:08;;;;;;;7.38;2.50;;;12.90;99.90;;;;;;5118349;27;20065;-69
2023/06/03 04:17:37;;;;;;;4.43;2.63;;;12.90;99.90;;;;;;5136782;27;20035;-70
2023/06/03 04:20:19;;;;;;;5.78;3.30;;;13.00;99.90;;;;;;5118090;27;20035;-69
2023/06/03 04:22:45;;;;;;;4.95;2.45;;;13.00;99.90;;;;;;5118298;27;20046;-69
2023/06/03 04:25:11;;;;;;;5.50;2.40;;;13.10;99.90;;;;;;5136107;27;20027;-71
2023/06/03 04:27:37;;;;;;;6.20;2.00;;;13.10;99.90;;;;;;5136339;27;20039;-69
2023/06/03 04:30:04;;;;;;;5.43;2.47;;;13.10;99.90;;;;;;5117968;27;20480;-69
2023/06/03 04:32:29;;;;;;;5.07;2.65;;;13.20;99.90;;;;;;5117793;27;20053;-69
2023/06/03 04:34:55;;;;;;;8.40;2.88;;;13.10;99.90;;;;;;5135948;27;20110;-69
2023/06/03 04:37:22;;;;;;;6.78;2.60;;;13.10;99.90;;;;;;5118036;27;20027;-69
2023/06/03 04:39:51;;;;;;;5.60;2.42;;;13.00;99.90;;;;;;5136378;27;20039;-73
2023/06/03 04:42:17;;;;;;;3.35;2.20;;;13.00;99.90;;;;;;5118045;27;20042;-70
2023/06/03 04:44:42;;;;;;;4.82;2.30;;;13.00;99.90;;;;;;5136107;27;20027;-70
2023/06/03 04:47:12;;;;;;;8.00;2.40;;;13.00;99.90;;;;;;5135784;27;20137;-70
2023/06/03 04:49:41;;;;;;;4.88;2.30;;;13.00;99.90;;;;;;5136212;27;20039;-70
2023/06/03 04:52:10;;;;;;;5.75;2.50;;;13.00;99.90;;;;;;5135782;27;20388;-70
2023/06/03 04:54:37;;;;;;;6.32;2.20;;;13.00;99.90;;;;;;5135817;27;20032;-70
2023/06/03 04:57:03;;;;;;;6.90;2.40;;;13.00;99.90;;;;;;5136025;27;20384;-70
2023/06/03 04:59:29;;;;;;;6.18;2.72;;;13.10;99.90;;;;;;5135779;27;20035;-70
2023/06/03 05:01:55;;;;;;;6.25;2.85;;;13.10;99.90;;;;;;5135971;27;20119;-70
2023/06/03 05:04:21;;;;;;;3.58;2.45;;;13.10;99.90;;;;;;5135813;27;20027;-70
2023/06/03 05:06:48;;;;;;;4.97;2.72;;;13.20;99.90;;;;;;5135651;27;20118;-70
2023/06/03 05:09:15;;;;;;;7.18;3.20;;;13.10;99.90;;;;;;5135622;27;20031;-70
2023/06/03 05:11:41;;;;;;;6.93;2.20;;;13.10;99.90;;;;;;5135553;27;20023;-70
2023/06/03 05:14:07;;;;;;;5.38;2.22;;;13.10;99.90;;;;;;5135439;27;20034;-70
2023/06/03 05:16:33;;;;;;;6.45;2.47;;;13.20;99.90;;;;;;5135421;27;20027;-70
2023/06/03 05:18:59;;;;;;;3.30;2.38;;;13.20;99.90;;;;;;5135558;27;20357;-70
2023/06/03 05:21:24;;;;;;;4.50;2.30;;;13.20;99.90;;;;;;5135642;27;20039;-70
2023/06/03 05:23:50;;;;;;;4.07;2.55;;;13.30;99.90;;;;;;5116807;27;20142;-70
2023/06/03 05:26:16;;;;;;;5.05;2.63;;;13.40;99.90;;;;;;5135238;27;20088;-72
2023/06/03 05:28:41;;;;;;;6.32;2.45;;;13.50;99.90;;;;;;5135091;27;20031;-71
2023/06/03 05:31:07;;;;;;;3.85;2.50;;;13.60;99.20;;;;;;5116783;27;20083;-72
2023/06/03 05:33:35;;;;;;;3.30;1.83;;;13.70;99.20;;;;;;5116816;27;20457;-72
2023/06/03 05:36:01;;;;;;;5.15;2.00;;;13.70;99.00;;;;;;5135204;27;20027;-72
2023/06/03 05:38:27;;;;;;;6.65;2.45;;;13.70;99.40;;;;;;5135185;27;20400;-64
2023/06/03 05:40:53;;;;;;;7.47;2.15;;;13.80;98.70;;;;;;5135011;27;20460;-70
2023/06/03 05:43:19;;;;;;;4.40;2.17;;;13.90;97.80;;;;;;5135238;27;20098;-72
2023/06/03 05:45:45;;;;;;;5.03;2.20;;;14.00;97.40;;;;;;5135251;27;20027;-72
2023/06/03 05:48:11;;;;;;;5.80;2.05;;;14.10;98.40;;;;;;5135174;27;20042;-71
2023/06/03 05:50:46;;;;;;;3.95;1.85;;;14.10;97.80;;;;;;5134814;27;20035;-72
2023/06/03 05:53:12;;;;;;;5.43;1.73;;;14.30;98.00;;;;;;5134632;27;20035;-71
2023/06/03 05:55:37;;;;;;;7.15;2.00;;;14.40;96.40;;;;;;5134958;27;20033;-71
2023/06/03 05:58:03;;;;;;;9.80;3.00;;;14.50;95.20;;;;;;5116428;27;20031;-71
2023/06/03 06:00:29;;;;;;;6.22;2.28;;;14.60;95.20;;;;;;5134590;27;20046;-71
2023/06/03 06:02:55;;;;;;;5.30;2.50;;;14.70;95.10;;;;;;5135084;28;20091;-72
2023/06/03 06:05:21;;;;;;;5.55;1.77;;;14.80;94.10;;;;;;5116047;28;20035;-71
2023/06/03 06:07:46;;;;;;;3.17;1.63;;;14.80;92.90;;;;;;5116823;28;20530;-71
2023/06/03 06:10:12;;;;;;;4.50;1.95;;;14.90;93.10;;;;;;5116169;28;20392;-72
2023/06/03 06:12:37;;;;;;;5.47;2.00;;;15.00;92.50;;;;;;5116206;28;20130;-72
2023/06/03 06:15:03;;;;;;;3.65;1.80;;;15.50;92.20;;;;;;5134968;28;20060;-64
2023/06/03 06:17:29;;;;;;;4.68;1.80;;;15.80;90.80;;;;;;5116727;28;20063;-65
2023/06/03 06:19:55;;;;;;;3.88;2.00;;;16.30;89.20;;;;;;5116309;28;20035;-70
2023/06/03 06:22:21;;;;;;;6.80;2.75;;;16.70;86.60;;;;;;5116130;28;20104;-70
2023/06/03 06:24:47;;;;;;;4.80;1.70;;;17.10;82.50;;;;;;5116094;28;20118;-70
2023/06/03 06:27:13;;;;;;;4.57;1.67;;;17.10;83.00;;;;;;5116065;28;20080;-70
2023/06/03 06:29:38;;;;;;;3.35;1.70;;;17.10;80.20;;;;;;5116009;28;20039;-71
2023/06/03 06:32:05;;;;;;;3.30;1.73;;;17.10;81.20;;;;;;5134494;28;20036;-71
2023/06/03 06:34:33;;;;;;;10.25;2.10;;;17.40;80.60;;;;;;5115914;28;20046;-70
2023/06/03 06:36:59;;;;;;;5.70;1.80;;;17.60;77.90;;;;;;5134415;28;20035;-71
2023/06/03 06:39:47;;;;;;;4.97;2.20;;;17.70;74.80;;;;;;5134339;28;20043;-70
2023/06/03 06:42:32;;;;;;;4.50;2.08;;;17.90;75.30;;;;;;5134780;28;20120;-71
2023/06/03 06:45:13;;;;;;;5.35;1.88;;;18.00;75.00;;;;;;5116183;28;20126;-70
2023/06/03 06:47:40;;;;;;;4.85;1.90;;;18.30;74.30;;;;;;5116691;28;20039;-70
2023/06/03 06:50:17;;;;;;;4.57;1.73;;;18.60;73.60;;;;;;5134252;28;20430;-69
2023/06/03 06:52:43;;;;;;;2.70;1.88;;;18.90;71.80;;;;;;5134406;28;20122;-67
2023/06/03 06:55:36;;;;;;;5.72;1.85;;;18.80;69.40;;;;;;5133988;28;20556;-68
2023/06/03 06:58:01;;;;;;;6.82;2.30;;;18.60;69.20;;;;;;5115791;28;20027;-68
2023/06/03 07:00:30;;;;;;;5.85;1.88;;;18.80;69.20;;;;;;5134036;28;20384;-67
2023/06/03 07:02:55;;;;;;;6.38;1.98;;;19.10;69.80;;;;;;5115709;28;20122;-68
2023/06/03 07:05:21;;;;;;;3.88;1.73;;;19.40;68.70;;;;;;5134112;28;20059;-68
2023/06/03 07:07:48;;;;;;;9.25;2.25;;;19.60;67.70;;;;;;5133844;28;20110;-68
2023/06/03 07:10:22;;;;;;;3.75;1.90;;;19.50;66.60;;;;;;5133957;28;20084;-70
2023/06/03 07:12:51;;;;;;;4.60;2.03;;;19.70;65.70;;;;;;5134096;28;20510;-69
2023/06/03 07:15:18;;;;;;;4.00;1.95;;;19.50;64.50;;;;;;5133712;28;20396;-70
2023/06/03 07:17:56;;;;;;;2.38;1.60;;;19.70;64.20;;;;;;5117884;27;20031;-70
2023/06/03 07:20:43;;;;;;;3.43;2.20;;;20.10;62.40;;;;;;5120979;27;20053;-69
2023/06/03 07:23:11;;;;;;;4.30;1.70;;;20.50;61.70;;;;;;5119136;27;20027;-69
2023/06/03 07:25:41;;;;;;;6.82;1.77;;;20.30;60.10;;;;;;5137725;27;20042;-69
2023/06/03 07:28:15;;;;;;;6.40;1.75;;;20.30;58.50;;;;;;5137503;27;20035;-69
2023/06/03 07:30:42;;;;;;;3.40;1.60;;;20.50;58.20;;;;;;5137138;27;20395;-69
2023/06/03 07:33:26;;;;;;;6.82;1.65;;;20.70;56.30;;;;;;5119045;27;20045;-69
2023/06/03 07:35:57;;;;;;;2.25;1.48;;;20.80;57.00;;;;;;5137513;27;20050;-72
2023/06/03 07:38:37;;;;;;;2.80;1.63;;;21.10;56.80;;;;;;5137687;27;20031;-70
2023/06/03 07:41:07;;;;;;;7.38;1.50;;;21.30;54.70;;;;;;5137314;27;20036;-70
2023/06/03 07:43:34;;;;;;;4.53;1.50;;;21.40;52.40;;;;;;5118977;27;20031;-72
2023/06/03 07:46:04;;;;;;;2.17;1.55;;;21.50;52.10;;;;;;5137697;27;20110;-72
2023/06/03 07:48:30;;;;;;;5.32;1.60;;;21.80;52.10;;;;;;5137228;27;20023;-71
2023/06/03 07:50:55;;;;;;;4.32;1.35;;;21.80;51.70;;;;;;5137371;27;20380;-72
2023/06/03 07:53:24;;;;;;;2.22;1.65;;;22.00;51.80;;;;;;5137875;27;20084;-71
2023/06/03 07:55:50;;;;;;;;;;;22.10;51.30;;;;;;5119829;27;20035;-71
2023/06/03 07:58:17;;;;;;;2.83;1.48;;;21.80;50.70;;;;;;5137218;27;19930;-71
2023/06/03 08:00:45;;;;;;;3.65;2.30;;;21.80;49.30;;;;;;5137384;27;20043;-68
2023/06/03 08:03:16;;;;;;;7.22;1.63;;;21.70;49.90;;;;;;5136929;27;20042;-70
2023/06/03 08:05:42;;;;;;;5.70;1.70;;;22.10;50.90;;;;;;5118747;27;20441;-72
2023/06/03 08:08:12;;;;;;;4.70;1.63;;;22.20;49.10;;;;;;5118928;27;20031;-71
2023/06/03 08:10:38;;;;;;;4.20;1.40;;;22.20;48.80;;;;;;5119185;27;20031;-71
2023/06/03 08:13:05;;;;;;;7.63;1.88;;;22.40;47.90;;;;;;5136809;27;20392;-71
2023/06/03 08:15:35;;;;;;;4.80;1.88;;;22.30;49.90;;;;;;5118638;27;20059;-71
2023/06/03 08:18:05;;;;;;;3.50;1.80;;;22.40;47.70;;;;;;5137125;27;20132;-71
2023/06/03 08:20:33;;;;;;;2.95;1.40;;;21.80;48.60;;;;;;5136747;27;20031;-70
2023/06/03 08:22:59;;;;;;;2.45;1.40;;;21.70;48.40;;;;;;5136791;27;20053;-69
2023/06/03 08:25:25;;;;;;;2.50;1.50;;;21.90;48.40;;;;;;5118125;27;20433;-71
2023/06/03 08:27:52;;;;;;;3.42;1.65;;;22.00;47.80;;;;;;5136250;27;20066;-68
2023/06/03 08:30:21;;;;;;;3.83;1.27;;;22.10;49.10;;;;;;5136577;27;20031;-69
2023/06/03 08:32:48;;;;;;;2.83;1.33;;;22.00;49.20;;;;;;5118139;27;20035;-70
2023/06/03 08:35:21;;;;;;;8.43;1.65;;;22.50;48.80;;;;;;5118770;27;20130;-71
2023/06/03 08:37:47;;;;;;;6.45;1.77;;;23.10;48.10;;;;;;5136716;27;20027;-71
2023/06/03 08:40:14;;;;;;;5.15;1.60;;;23.50;46.50;;;;;;5118013;27;20126;-71
2023/06/03 08:42:42;;;;;;;3.25;1.50;;;23.60;47.10;;;;;;5136459;27;20099;-72
2023/06/03 08:45:10;;;;;;;4.13;1.23;;;24.00;44.80;;;;;;5118299;27;20362;-71
2023/06/03 08:47:45;;;;;;;5.18;1.40;;;23.80;45.50;;;;;;5117404;27;20287;-71
2023/06/03 08:50:11;;;;;;;3.45;1.50;;;23.60;45.60;;;;;;5135956;27;20480;-72
2023/06/03 08:52:42;;;;;;;4.18;1.48;;;23.90;45.70;;;;;;5136236;27;20035;-72
2023/06/03 08:55:12;;;;;;;4.45;1.45;;;24.10;44.70;;;;;;5135708;27;20365;-72
2023/06/03 08:58:04;;;;;;;4.80;1.27;;;23.80;45.00;;;;;;5117639;27;20396;-72
2023/06/03 09:00:31;;;;;;;3.45;1.73;;;23.70;43.60;;;;;;5135589;27;20115;-72
2023/06/03 09:02:58;;;;;;;2.05;1.17;;;23.90;43.90;;;;;;5135621;27;20035;-72
2023/06/03 09:05:24;;;;;;;6.45;1.40;;;24.40;44.50;;;;;;5135872;27;20032;-72
2023/06/03 09:07:54;;;;;;;4.22;1.92;;;24.80;44.00;;;;;;5117374;27;20431;-72
2023/06/03 09:10:25;;;;;;;5.15;1.60;;;25.20;43.50;;;;;;5136017;27;20074;-72
2023/06/03 09:12:54;;;;;;;2.25;1.23;;;25.50;41.50;;;;;;5117105;27;20080;-72
2023/06/03 09:15:21;;;;;;;3.30;1.33;;;25.40;41.70;;;;;;5117031;27;20563;-72
2023/06/03 09:17:47;;;;;;;9.00;1.60;;;25.60;39.80;;;;;;5135623;27;20106;-72
2023/06/03 09:20:13;;;;;;;5.65;1.83;;;25.80;39.50;;;;;;5135765;27;20202;-72
2023/06/03 09:22:42;;;;;;;3.72;1.30;;;25.70;40.10;;;;;;5135510;27;20031;-71
2023/06/03 09:25:08;;;;;;;3.53;1.52;;;25.30;40.90;;;;;;5135188;27;20066;-71
2023/06/03 09:27:34;;;;;;;2.55;1.17;;;25.30;40.20;;;;;;5135153;27;20106;-72
2023/06/03 09:30:02;;;;;;;4.05;1.60;;;24.70;40.50;;;;;;5135140;27;20087;-72
2023/06/03 09:32:30;;;;;;;2.63;1.53;;;24.70;41.80;;;;;;5116720;27;20130;-72
2023/06/03 09:34:57;;;;;;;2.80;1.40;;;25.30;40.30;;;;;;5135292;27;20063;-72
2023/06/03 09:37:23;;;;;;;4.07;1.63;;;25.80;41.00;;;;;;5116653;27;20069;-71
2023/06/03 09:39:48;;;;;;;6.00;1.40;;;25.80;39.80;;;;;;5133914;27;20071;-71
2023/06/03 09:42:15;;;;;;;2.40;1.35;;;25.00;40.90;;;;;;5134914;27;20028;-71
2023/06/03 09:44:48;;;;;;;3.25;1.60;;;25.00;41.10;;;;;;5135140;27;20031;-71
2023/06/03 09:47:15;;;;;;;6.07;1.30;;;25.50;41.00;;;;;;5135224;27;20570;-71
2023/06/03 09:50:01;;;;;;;4.60;1.50;;;26.10;40.10;;;;;;5134792;27;20031;-71
2023/06/03 09:52:34;;;;;;;1.52;1.13;;;26.30;40.00;;;;;;5134989;27;20510;-72
2023/06/03 09:55:04;;;;;;;2.47;1.40;;;26.90;40.00;;;;;;5134410;27;20441;-73
2023/06/03 09:57:30;;;;;;;1.88;1.08;;;27.00;37.30;;;;;;5134715;27;20035;-71
2023/06/03 10:00:07;;;;;;;4.97;1.33;;;26.90;38.70;;;;;;5116175;27;20054;-71
2023/06/03 10:02:37;;;;;;;2.95;1.27;;;26.70;37.80;;;;;;5134328;27;20464;-73
2023/06/03 10:05:02;;;;;;;2.70;1.15;;;26.60;38.00;;;;;;5134776;28;20055;-73
2023/06/03 10:07:28;;;;;;;2.10;1.10;;;26.10;38.10;;;;;;5135207;28;20453;-72
2023/06/03 10:10:04;;;;;;;2.95;1.25;;;25.50;38.40;;;;;;5117122;28;20404;-72
2023/06/03 10:12:32;;;;;;;2.50;1.23;;;25.70;38.90;;;;;;5116837;28;20035;-73
2023/06/03 10:15:00;;;;;;;2.88;1.30;;;26.00;38.70;;;;;;5116389;28;20059;-72
2023/06/03 10:17:26;;;;;;;;;;;25.70;39.00;;;;;;5135163;28;20034;-72
2023/06/03 10:19:52;;;;;;;3.92;1.25;;;25.80;39.40;;;;;;5116073;28;19903;-73
2023/06/03 10:22:19;;;;;;;2.60;1.25;;;26.00;37.60;;;;;;5134430;28;20525;-73
2023/06/03 10:24:48;;;;;;;4.68;1.20;;;25.60;38.40;;;;;;5115970;28;20050;-73
2023/06/03 10:27:16;;;;;;;2.88;1.33;;;26.20;38.60;;;;;;5116256;28;20384;-73
2023/06/03 10:29:42;;;;;;;8.38;2.03;;;26.50;37.20;;;;;;5134383;28;20039;-70
2023/06/03 10:32:12;;;;;;;3.53;1.38;;;26.70;37.10;;;;;;5134775;28;20031;-71
2023/06/03 10:34:42;;;;;;;2.20;0.73;;;27.30;37.00;;;;;;5118125;28;20043;-71
2023/06/03 10:37:09;;;;;;;2.80;1.00;;;27.40;36.60;;;;;;5136940;28;20046;-70
2023/06/03 10:39:36;;;;;;;3.67;1.15;;;27.30;35.30;;;;;;5134233;28;20496;-71
2023/06/03 10:42:05;;;;;;;1.05;0.65;;;27.00;35.30;;;;;;5134281;28;20084;-73
2023/06/03 10:44:31;;;;;;;;;;;26.60;35.60;;;;;;5116270;28;20081;-71
2023/06/03 10:47:06;;;;;;;3.00;1.20;;;26.40;37.30;;;;;;5134830;28;19957;-72
2023/06/03 10:49:40;;;;;;;1.85;1.10;;;27.00;33.80;;;;;;5116386;28;20039;-70
2023/06/03 10:52:43;;;;;;;2.13;1.00;;;27.60;34.30;;;;;;5120807;27;20492;-70
2023/06/03 10:55:09;;;;;;;5.03;0.85;;;27.60;33.50;;;;;;5138102;27;20621;-72
2023/06/03 10:57:47;;;;;;;3.72;1.20;;;28.00;33.60;;;;;;5138350;27;20059;-73
2023/06/03 11:00:33;;;;;;;;;;;28.30;33.10;;;;;;5138873;27;20027;-72
2023/06/03 11:03:04;;;;;;;1.27;0.85;;;27.80;32.40;;;;;;5138968;27;19994;-72
2023/06/03 11:05:30;;;;;;;2.05;1.20;;;27.60;32.20;;;;;;5139302;27;20031;-72
2023/06/03 11:07:55;;;;;;;3.65;1.13;;;27.50;32.50;;;;;;5120856;27;20032;-71
2023/06/03 11:10:36;;;;;;;5.93;0.90;;;26.00;33.40;;;;;;5119724;27;20122;-70
2023/06/03 11:13:03;;;;;;;1.92;0.90;;;26.10;34.40;;;;;;5120202;27;20035;-73
2023/06/03 11:15:56;;;;;;;4.60;1.30;;;26.50;33.50;;;;;;5138451;27;20036;-70
2023/06/03 11:18:22;;;;;;;1.98;0.90;;;26.80;34.40;;;;;;5137618;27;20042;-73
2023/06/03 11:20:48;;;;;;;2.55;1.20;;;26.70;33.10;;;;;;5137139;27;20035;-72
2023/06/03 11:23:38;;;;;;;1.35;0.80;;;26.20;33.10;;;;;;5119157;27;20031;-70
2023/06/03 11:26:35;;;;;;;1.23;0.95;;;26.00;33.40;;;;;;5119381;27;20035;-71
2023/06/03 11:29:04;;;;;;;3.85;0.95;;;27.10;34.20;;;;;;5118448;27;20038;-71
2023/06/03 11:31:32;;;;;;;4.43;1.20;;;28.40;32.70;;;;;;5119646;27;20521;-72
2023/06/03 11:34:25;;;;;;;1.75;0.90;;;28.80;30.60;;;;;;5119616;27;20039;-71
2023/06/03 11:36:52;;;;;;;4.68;1.15;;;28.80;30.90;;;;;;5137921;27;20031;-71
2023/06/03 11:39:19;;;;;;;1.65;1.08;;;27.90;30.90;;;;;;5137724;27;20487;-71
2023/06/03 11:42:05;;;;;;;1.98;1.10;;;28.60;31.40;;;;;;5119309;27;20031;-73
2023/06/03 11:44:32;;;;;;;1.52;1.00;;;29.20;30.70;;;;;;5137635;27;20087;-73
2023/06/03 11:46:57;;;;;;;5.50;1.45;;;28.80;29.60;;;;;;5137622;27;20031;-72
2023/06/03 11:49:24;;;;;;;2.03;0.98;;;28.10;29.90;;;;;;5137260;27;20044;-71
2023/06/03 11:51:58;;;;;;;1.73;1.10;;;27.10;30.60;;;;;;5137211;27;20035;-70
2023/06/03 11:54:24;;;;;;;2.17;0.90;;;27.60;31.40;;;;;;5119645;27;20422;-70
2023/06/03 11:56:51;;;;;;;1.00;0.90;;;28.00;29.70;;;;;;5137248;27;20038;-70
2023/06/03 11:59:20;;;;;;;5.82;2.22;;;28.20;29.40;;;;;;5137049;27;20031;-71
2023/06/03 12:02:06;;;;;;;1.38;0.95;;;28.80;30.40;;;;;;5095312;28;20488;-71
2023/06/03 12:04:33;;;;;;;2.83;1.20;;;29.30;29.50;;;;;;5096203;28;20035;-70
2023/06/03 12:07:00;;;;;;;2.75;1.15;;;29.40;29.80;;;;;;5096396;28;20074;-71
2023/06/03 12:09:28;;;;;;;3.47;1.25;;;29.80;29.90;;;;;;5094955;28;20044;-70
2023/06/03 12:11:55;;;;;;;2.83;1.02;;;30.10;30.00;;;;;;5094923;28;20036;-71
2023/06/03 12:14:29;;;;;;;1.60;1.00;;;29.80;29.10;;;;;;5095164;28;20028;-71
2023/06/03 12:16:57;;;;;;;1.50;0.95;;;29.80;27.80;;;;;;5094498;28;20466;-71
2023/06/03 12:19:23;;;;;;;2.83;0.95;;;29.40;28.00;;;;;;5096241;28;20130;-71
2023/06/03 12:21:57;;;;;;;2.55;1.00;;;29.30;28.30;;;;;;5095604;28;20032;-71
2023/06/03 12:24:30;;;;;;;1.73;1.25;;;29.80;27.90;;;;;;5094752;28;20028;-71
2023/06/03 12:26:56;;;;;;;1.50;1.00;;;28.80;27.80;;;;;;5097870;28;20392;-71
2023/06/03 12:29:24;;;;;;;4.90;1.10;;;29.00;29.00;;;;;;5097577;28;20618;-73
2023/06/03 12:32:00;;;;;;;1.52;1.08;;;29.50;28.40;;;;;;5097765;28;20035;-72
2023/06/03 12:34:36;;;;;;;1.27;0.90;;;29.70;27.70;;;;;;5097121;28;20097;-71
2023/06/03 12:37:03;;;;;;;8.82;1.15;;;29.80;28.60;;;;;;5115826;28;20071;-72
2023/06/03 12:39:44;;;;;;;5.15;1.65;;;30.70;28.90;;;;;;5096755;28;20131;-73
2023/06/03 12:42:10;;;;;;;1.88;1.00;;;31.30;28.90;;;;;;5115533;28;20030;-73
2023/06/03 12:44:52;;;;;;;2.42;0.90;;;31.00;28.70;;;;;;5115564;28;20040;-73
2023/06/03 12:47:19;;;;;;;3.63;0.88;;;30.70;29.20;;;;;;5115006;28;20115;-73
2023/06/03 12:50:11;;;;;;;3.72;1.00;;;30.80;28.80;;;;;;5115416;28;20044;-73
2023/06/03 12:52:38;;;;;;;1.83;1.05;;;30.70;29.10;;;;;;5097368;28;20088;-74
2023/06/03 12:55:09;;;;;;;1.38;1.05;;;31.10;29.10;;;;;;5097231;28;20473;-72
2023/06/03 12:57:37;;;;;;;2.78;1.23;;;31.30;28.50;;;;;;5114305;28;20027;-73